Main page
METAR-TAF:

METAR-TAF

Airports :

Lyon–Bron Airport

Lyon, France

latitude: 45-43N, longitude: 004-57E, elevation: 200 m

Current weather observation

The report was made 35 minutes ago, at 08:30 UTC
Wind 8 kt from the North
Temperature 23°C
Humidity 57%
Pressure 1020 hPa
Visibility 10 km or more
no clouds below 1500 m and no cumulonimbus

METAR: LFLY 150830Z AUTO 35008KT CAVOK 23/14 Q1020 NOSIG

Time: 11:05 (09:05 UTC)

Forecast

The report was made 4 hours and 5 minutes ago, at 05:00 UTC
Forecast valid from 15 at 06 UTC to 16 at 06 UTC
Wind 7 kt from the North/Northwest
Visibility 10 km or more
no clouds below 1500 m and no cumulonimbus

TAF: LFLY 150500Z 1506/1606 34007KT CAVOK

Weather observations and forecasts of more than 4000 airports (METAR and TAF reports).

The available stations are represented by yellow and red dots on the map.

Hover mouse over dot to see the name of the station.

Then click to see weather observations and forecasts.

To change the map : click on the green buttons with a black cross to zoom in, on the green button with a dash to zoom out, or on the green arrows for adjacent maps.


METAR-TAF: